Sabetha, Kansas
Current Conditions -  °F | °C
As of 3:53 AM on Saturday 01 Nov 2014 (Local Time) from KFNB Reporting Station
Clear Clear  
Wind Chill: 29°   Ceiling: Unl
Heat Index: 29°   Visibility: 10mi
Dew Point: 21°   Wind: 3mph
Humidity: 72%   Direction: 140°SE
Pressure: 30.46"   Gusts: NA
Location:  39.9°N, 95.8°W
Report Text: KFNB 010853Z AUTO 14003KT 10SM CLR M02/M06 A3046 RMK AO2 SLP320 T10171061 58002
Loading
Personal Weather Stations






























Interactive Weather Map
Tropical Storm Tracking
New forecast layout! Learn more

10-Day Weather Forecast

Advertisements
Track Severe Weather on mobile